createdAt,value
2023-03-30T00:00:38.156Z,73.67
2023-03-30T00:03:04.678Z,73.54
2023-03-30T00:05:31.357Z,73.46
2023-03-30T00:07:57.707Z,73.59
2023-03-30T00:10:24.152Z,73.63
2023-03-30T00:12:51.136Z,73.61
2023-03-30T00:15:20.190Z,73.59
2023-03-30T00:17:46.600Z,73.73
2023-03-30T00:20:14.611Z,73.71
2023-03-30T00:22:42.204Z,73.57
2023-03-30T00:25:12.396Z,73.28
2023-03-30T00:27:39.953Z,73.31
2023-03-30T00:30:10.296Z,73.03
2023-03-30T00:32:36.843Z,73.35
2023-03-30T00:35:05.242Z,73.01
2023-03-30T00:37:32.547Z,72.86
2023-03-30T00:39:58.936Z,72.73
2023-03-30T00:42:25.516Z,72.72
2023-03-30T00:45:21.247Z,71.47
2023-03-30T00:47:59.722Z,71.41
2023-03-30T00:50:34.953Z,71.99
2023-03-30T00:53:06.989Z,72.20
2023-03-30T00:55:36.119Z,72.78
2023-03-30T00:58:02.517Z,72.67
2023-03-30T01:00:28.964Z,72.73
2023-03-30T01:02:59.126Z,72.09
2023-03-30T01:05:28.473Z,72.55
2023-03-30T01:07:57.834Z,72.41
2023-03-30T01:10:24.315Z,72.38
2023-03-30T01:12:51.423Z,72.44
2023-03-30T01:15:18.105Z,72.49
2023-03-30T01:17:59.661Z,72.14
2023-03-30T01:20:44.256Z,70.87
2023-03-30T01:23:38.908Z,70.82
2023-03-30T01:26:18.018Z,70.64
2023-03-30T01:29:25.596Z,70.38
2023-03-30T01:32:09.243Z,71.15
2023-03-30T01:35:05.844Z,70.84
2023-03-30T01:37:55.336Z,71.37
2023-03-30T01:40:44.865Z,70.75
2023-03-30T01:43:18.816Z,71.41
2023-03-30T01:45:51.845Z,71.37
2023-03-30T01:48:31.133Z,68.88
2023-03-30T01:51:02.304Z,71.32
2023-03-30T01:53:35.692Z,71.19
2023-03-30T01:56:07.884Z,71.71
2023-03-30T01:58:43.654Z,70.47
2023-03-30T02:01:14.309Z,71.63
2023-03-30T02:03:42.991Z,71.10
2023-03-30T02:06:24.452Z,70.14
2023-03-30T02:08:52.406Z,71.17
2023-03-30T02:11:18.784Z,71.65
2023-03-30T02:13:51.048Z,71.46
2023-03-30T02:16:26.368Z,70.13
2023-03-30T02:18:54.604Z,71.39
2023-03-30T02:21:22.385Z,71.15
2023-03-30T02:23:52.024Z,71.29
2023-03-30T02:26:18.404Z,70.93
2023-03-30T02:28:45.168Z,70.86
2023-03-30T02:31:16.779Z,69.65
2023-03-30T02:34:06.491Z,69.11
2023-03-30T02:36:45.085Z,70.83
2023-03-30T02:39:36.821Z,68.16
2023-03-30T02:42:38.325Z,68.18
2023-03-30T02:45:23.804Z,67.39
2023-03-30T02:48:07.336Z,68.70
2023-03-30T02:50:44.544Z,67.63
2023-03-30T02:53:24.715Z,68.36
2023-03-30T02:56:04.266Z,68.13
2023-03-30T02:58:55.389Z,67.79
2023-03-30T03:01:37.043Z,66.83
2023-03-30T03:04:04.836Z,69.35
2023-03-30T03:06:34.054Z,69.34
2023-03-30T03:09:00.518Z,69.22
2023-03-30T03:11:27.192Z,69.20
2023-03-30T03:13:53.683Z,68.89
2023-03-30T03:16:20.399Z,68.67
2023-03-30T03:18:49.497Z,68.51
2023-03-30T03:21:16.034Z,68.24
2023-03-30T03:23:42.920Z,68.18
2023-03-30T03:26:10.078Z,68.03
2023-03-30T03:28:36.401Z,68.12
2023-03-30T03:31:18.518Z,67.84
2023-03-30T03:34:13.208Z,67.93
2023-03-30T03:36:58.430Z,66.56
2023-03-30T03:39:26.992Z,67.81
2023-03-30T03:41:57.496Z,67.96
2023-03-30T03:50:53.632Z,67.30
2023-03-30T03:53:41.941Z,66.65
2023-03-30T03:56:11.867Z,66.26
2023-03-30T03:58:56.121Z,66.84
2023-03-30T04:01:31.112Z,67.35
2023-03-30T04:04:04.753Z,67.12
2023-03-30T04:06:31.327Z,66.69
2023-03-30T04:09:03.887Z,66.00
2023-03-30T04:11:40.015Z,66.03
2023-03-30T04:14:06.479Z,66.71
2023-03-30T04:16:34.144Z,66.74
2023-03-30T04:19:00.715Z,66.74
2023-03-30T04:21:29.714Z,66.42
2023-03-30T04:23:56.563Z,66.20
2023-03-30T04:26:23.089Z,66.33
2023-03-30T04:28:53.522Z,66.31
2023-03-30T04:31:32.604Z,66.10
2023-03-30T04:34:02.625Z,65.36
2023-03-30T04:36:33.342Z,65.84
2023-03-30T04:39:39.998Z,62.99
2023-03-30T04:43:16.478Z,64.69
2023-03-30T04:45:46.074Z,64.07
2023-03-30T04:48:18.561Z,66.11
2023-03-30T04:54:08.864Z,63.93
2023-03-30T04:56:39.425Z,65.64
2023-03-30T04:59:17.997Z,65.06
2023-03-30T05:12:05.445Z,65.10
2023-03-30T05:14:32.186Z,64.84
2023-03-30T05:16:58.928Z,64.96
2023-03-30T05:19:25.942Z,64.74
2023-03-30T05:21:52.397Z,64.67
2023-03-30T05:24:18.993Z,64.33
2023-03-30T05:26:45.619Z,64.73
2023-03-30T05:29:12.357Z,64.64
2023-03-30T05:31:39.623Z,64.93
2023-03-30T05:34:06.657Z,64.98
2023-03-30T05:36:36.199Z,65.17
2023-03-30T05:39:05.027Z,65.23
2023-03-30T05:41:31.854Z,65.40
2023-03-30T05:43:58.413Z,65.38
2023-03-30T05:46:24.992Z,65.60
2023-03-30T05:48:51.509Z,65.75
2023-03-30T05:51:18.050Z,65.49
2023-03-30T05:53:45.255Z,65.35
2023-03-30T05:56:11.819Z,65.37
2023-03-30T05:58:38.536Z,65.45
2023-03-30T06:01:05.927Z,65.54
2023-03-30T06:03:33.238Z,65.51
2023-03-30T06:06:00.335Z,65.38
2023-03-30T06:08:29.797Z,65.27
2023-03-30T06:10:57.110Z,64.72
2023-03-30T06:13:24.210Z,64.80
2023-03-30T06:15:51.441Z,65.21
2023-03-30T06:18:17.968Z,65.07
2023-03-30T06:20:47.686Z,64.19
2023-03-30T06:23:15.147Z,64.84
2023-03-30T06:25:41.740Z,65.34
2023-03-30T06:28:08.227Z,64.96
2023-03-30T06:30:34.843Z,64.85
2023-03-30T06:33:01.426Z,64.86
2023-03-30T06:35:29.178Z,64.53
2023-03-30T06:37:55.943Z,64.74
2023-03-30T06:40:22.578Z,64.56
2023-03-30T06:42:49.126Z,64.65
2023-03-30T06:45:16.403Z,64.29
2023-03-30T06:47:42.987Z,64.49
2023-03-30T06:50:10.232Z,64.17
2023-03-30T06:52:38.022Z,64.20
2023-03-30T06:55:05.620Z,64.14
2023-03-30T06:57:32.471Z,64.36
2023-03-30T06:59:59.054Z,64.32
2023-03-30T07:02:26.140Z,64.15
2023-03-30T07:04:52.697Z,64.82
2023-03-30T07:07:19.832Z,65.47
2023-03-30T07:09:46.592Z,66.19
2023-03-30T07:12:13.097Z,66.87
2023-03-30T07:14:39.656Z,67.57
2023-03-30T07:17:07.881Z,68.10
2023-03-30T07:19:34.638Z,69.01
2023-03-30T07:22:01.299Z,69.69
2023-03-30T07:24:29.959Z,70.35
2023-03-30T07:26:56.568Z,71.00
2023-03-30T07:29:23.068Z,71.59
2023-03-30T07:31:49.624Z,72.24
2023-03-30T07:34:17.112Z,72.59
2023-03-30T07:36:43.684Z,72.64
2023-03-30T07:39:11.287Z,73.12
2023-03-30T07:41:37.880Z,73.20
2023-03-30T07:44:04.437Z,73.28
2023-03-30T07:46:31.232Z,73.79
2023-03-30T07:48:58.026Z,74.13
2023-03-30T07:51:27.349Z,74.19
2023-03-30T07:53:54.539Z,73.90
2023-03-30T07:56:21.126Z,74.37
2023-03-30T07:58:47.696Z,74.58
2023-03-30T08:01:14.295Z,74.55
2023-03-30T08:03:40.985Z,73.90
2023-03-30T08:06:07.736Z,73.55
2023-03-30T08:08:35.182Z,73.04
2023-03-30T08:11:02.363Z,72.87
2023-03-30T08:13:29.169Z,72.82
2023-03-30T08:15:55.841Z,72.76
2023-03-30T08:18:22.495Z,73.02
2023-03-30T08:20:53.728Z,72.14
2023-03-30T08:23:21.155Z,72.76
2023-03-30T08:25:52.214Z,72.41
2023-03-30T08:28:20.153Z,72.32
2023-03-30T08:30:47.258Z,72.61
2023-03-30T08:33:14.948Z,72.42
2023-03-30T08:35:44.733Z,70.90
2023-03-30T08:38:12.234Z,71.31
2023-03-30T08:40:41.451Z,71.38
2023-03-30T08:43:33.731Z,69.38
2023-03-30T08:46:01.718Z,71.15
2023-03-30T08:48:33.503Z,70.11
2023-03-30T08:51:05.835Z,70.96
2023-03-30T08:53:34.019Z,71.52
2023-03-30T08:56:03.511Z,71.65
2023-03-30T08:58:45.166Z,71.16
2023-03-30T09:01:20.872Z,72.05
2023-03-30T09:04:05.763Z,72.26
2023-03-30T09:06:52.102Z,73.14
2023-03-30T09:09:21.494Z,72.06
2023-03-30T09:11:59.602Z,71.14
2023-03-30T09:14:35.261Z,71.27
2023-03-30T09:17:16.812Z,70.60
2023-03-30T09:19:53.853Z,70.00
2023-03-30T09:22:20.507Z,71.73
2023-03-30T09:24:47.318Z,70.66
2023-03-30T09:27:25.198Z,69.79
2023-03-30T09:29:55.765Z,70.71
2023-03-30T09:35:01.795Z,69.81
2023-03-30T09:37:28.352Z,71.38
2023-03-30T09:39:54.755Z,70.83
2023-03-30T09:42:45.826Z,67.32
2023-03-30T09:45:28.071Z,65.92
2023-03-30T09:47:54.666Z,69.69
2023-03-30T09:50:26.912Z,67.37
2023-03-30T09:53:03.399Z,67.75
2023-03-30T09:55:32.258Z,69.63
2023-03-30T09:58:17.417Z,64.27
2023-03-30T10:00:44.667Z,68.70
2023-03-30T10:03:21.119Z,66.86
2023-03-30T10:06:02.982Z,63.68
2023-03-30T10:08:29.810Z,68.19
2023-03-30T10:10:58.104Z,68.26
2023-03-30T10:13:32.436Z,67.11
2023-03-30T10:16:06.013Z,67.14
2023-03-30T10:18:44.955Z,65.13
2023-03-30T10:21:14.951Z,68.32
2023-03-30T10:23:44.738Z,68.79
2023-03-30T10:26:20.607Z,66.18
2023-03-30T10:29:18.238Z,63.77
2023-03-30T10:31:47.757Z,68.13
2023-03-30T10:34:18.569Z,66.93
2023-03-30T10:36:50.579Z,66.31
2023-03-30T10:39:24.435Z,63.69
2023-03-30T10:41:52.220Z,67.56
2023-03-30T10:44:41.678Z,67.18
2023-03-30T10:47:31.254Z,67.45
2023-03-30T10:49:57.534Z,67.44
2023-03-30T10:52:52.282Z,63.60
2023-03-30T10:56:00.717Z,64.87
2023-03-30T10:58:38.613Z,63.01
2023-03-30T11:01:11.448Z,67.84
2023-03-30T11:03:41.724Z,66.58
2023-03-30T11:06:19.370Z,63.59
2023-03-30T11:08:49.466Z,64.39
2023-03-30T11:11:29.350Z,63.54
2023-03-30T11:14:04.772Z,64.87
2023-03-30T11:16:45.583Z,64.97
2023-03-30T11:19:22.852Z,65.30
2023-03-30T11:21:56.621Z,66.18
2023-03-30T11:24:27.056Z,66.75
2023-03-30T11:26:56.408Z,65.95
2023-03-30T11:30:00.526Z,64.35
2023-03-30T11:32:36.285Z,65.70
2023-03-30T11:35:30.303Z,64.83
2023-03-30T11:38:19.341Z,66.01
2023-03-30T11:40:53.105Z,70.66
2023-03-30T11:43:22.558Z,75.02
2023-03-30T11:46:03.617Z,75.44
2023-03-30T11:48:51.993Z,75.20
2023-03-30T11:51:26.638Z,75.12
2023-03-30T11:54:06.121Z,70.58
2023-03-30T11:56:53.307Z,66.54
2023-03-30T11:59:36.278Z,64.37
2023-03-30T12:02:25.890Z,71.12
2023-03-30T12:04:58.323Z,62.18
2023-03-30T12:07:55.594Z,63.92
2023-03-30T12:10:31.019Z,60.88
2023-03-30T12:12:58.030Z,68.01
2023-03-30T12:15:51.923Z,55.12
2023-03-30T12:18:41.060Z,51.12
2023-03-30T12:21:32.370Z,47.12
2023-03-30T12:24:23.065Z,52.44
2023-03-30T12:27:04.300Z,55.41
2023-03-30T12:30:02.400Z,46.56
2023-03-30T12:32:31.207Z,56.50
2023-03-30T12:34:58.671Z,58.56
2023-03-30T12:37:36.080Z,55.70
2023-03-30T12:40:14.475Z,49.24
2023-03-30T12:42:55.653Z,50.36
2023-03-30T12:45:28.710Z,52.26
2023-03-30T12:47:57.858Z,54.53
2023-03-30T12:51:01.476Z,47.70
2023-03-30T12:53:46.524Z,44.91
2023-03-30T12:56:15.791Z,54.69
2023-03-30T12:59:06.743Z,48.90
2023-03-30T13:02:01.258Z,49.02
2023-03-30T13:04:34.269Z,51.46
2023-03-30T13:07:15.705Z,49.23
2023-03-30T13:10:00.288Z,52.82
2023-03-30T13:12:29.601Z,55.18
2023-03-30T13:15:17.209Z,47.57
2023-03-30T13:17:55.873Z,47.93
2023-03-30T13:20:35.489Z,49.87
2023-03-30T13:23:06.464Z,53.77
2023-03-30T13:25:59.895Z,51.05
2023-03-30T13:28:44.341Z,48.78
2023-03-30T13:31:32.100Z,51.04
2023-03-30T13:34:39.965Z,52.67
2023-03-30T13:37:09.243Z,56.62
2023-03-30T13:39:52.608Z,50.00
2023-03-30T13:42:41.390Z,50.92
2023-03-30T13:45:23.549Z,49.10
2023-03-30T13:48:04.699Z,46.53
2023-03-30T13:50:34.586Z,50.00
2023-03-30T13:53:08.036Z,51.84
2023-03-30T13:55:39.353Z,53.42
2023-03-30T13:58:20.337Z,52.55
2023-03-30T14:00:50.804Z,55.10
2023-03-30T14:03:30.542Z,55.68
2023-03-30T14:06:08.563Z,57.38
2023-03-30T14:08:38.877Z,60.15
2023-03-30T14:11:15.280Z,58.28
2023-03-30T14:13:44.572Z,60.42
2023-03-30T14:16:23.458Z,56.61
2023-03-30T14:18:51.222Z,57.73
2023-03-30T14:21:21.863Z,56.77
2023-03-30T14:24:01.242Z,54.28
2023-03-30T14:26:29.366Z,53.34
2023-03-30T14:29:02.847Z,51.01
2023-03-30T14:31:38.936Z,50.41
2023-03-30T14:34:28.642Z,54.60
2023-03-30T14:37:04.333Z,56.17
2023-03-30T14:39:32.760Z,55.94
2023-03-30T14:42:09.139Z,56.10
2023-03-30T14:44:39.229Z,56.47
2023-03-30T14:47:05.854Z,58.71
2023-03-30T14:49:32.589Z,59.56
2023-03-30T14:52:09.047Z,58.38
2023-03-30T14:54:37.012Z,60.78
2023-03-30T14:57:06.882Z,60.38
2023-03-30T14:59:39.670Z,61.33
2023-03-30T15:02:16.331Z,60.15
2023-03-30T15:04:43.717Z,62.89
2023-03-30T15:07:15.573Z,62.93
2023-03-30T15:09:44.711Z,64.08
2023-03-30T15:12:40.426Z,63.43
2023-03-30T15:15:08.937Z,65.31
2023-03-30T15:17:39.246Z,64.98
2023-03-30T15:20:08.188Z,65.27
2023-03-30T15:22:41.507Z,64.65
2023-03-30T15:25:13.308Z,65.11
2023-03-30T15:27:44.129Z,65.93
2023-03-30T15:30:26.432Z,65.66
2023-03-30T15:35:27.977Z,67.13
2023-03-30T15:38:14.186Z,66.09
2023-03-30T15:40:52.190Z,66.62
2023-03-30T15:43:27.554Z,66.44
2023-03-30T15:46:02.143Z,66.82
2023-03-30T15:48:47.940Z,68.90
2023-03-30T15:51:29.302Z,64.93
2023-03-30T15:54:16.452Z,64.40
2023-03-30T15:56:53.865Z,61.62
2023-03-30T15:59:22.060Z,64.62
2023-03-30T16:01:56.784Z,62.83
2023-03-30T16:04:24.928Z,62.99
2023-03-30T16:06:52.662Z,63.72
2023-03-30T16:09:19.428Z,63.95
2023-03-30T16:11:46.668Z,63.55
2023-03-30T16:14:17.817Z,62.96
2023-03-30T16:16:44.472Z,63.58
2023-03-30T16:19:13.294Z,63.48
2023-03-30T16:21:40.207Z,64.00
2023-03-30T16:24:07.253Z,63.64
2023-03-30T16:26:36.462Z,62.26
2023-03-30T16:29:02.997Z,64.25
2023-03-30T16:31:29.615Z,63.93
2023-03-30T16:33:56.006Z,63.94
2023-03-30T16:36:24.511Z,63.67
2023-03-30T16:38:50.966Z,64.14
2023-03-30T16:41:22.762Z,62.06
2023-03-30T16:43:49.343Z,64.40
2023-03-30T16:46:19.094Z,61.85
2023-03-30T16:48:46.290Z,64.18
2023-03-30T16:51:14.296Z,64.28
2023-03-30T16:53:41.649Z,63.88
2023-03-30T16:56:18.288Z,61.44
2023-03-30T16:58:45.180Z,63.57
2023-03-30T17:01:13.844Z,63.21
2023-03-30T17:03:40.518Z,63.68
2023-03-30T17:06:07.725Z,63.24
2023-03-30T17:08:34.791Z,63.53
2023-03-30T17:11:04.884Z,63.49
2023-03-30T17:13:32.009Z,64.07
2023-03-30T17:16:00.897Z,64.71
2023-03-30T17:18:28.109Z,64.94
2023-03-30T17:20:56.868Z,64.89
2023-03-30T17:23:26.015Z,65.18
2023-03-30T17:25:53.891Z,65.18
2023-03-30T17:28:22.237Z,65.26
2023-03-30T17:30:50.372Z,65.35
2023-03-30T17:33:16.781Z,65.41
2023-03-30T17:35:48.420Z,64.02
2023-03-30T17:38:16.021Z,65.24
2023-03-30T17:40:44.403Z,65.23
2023-03-30T17:43:11.099Z,64.86
2023-03-30T17:45:39.262Z,64.25
2023-03-30T17:48:11.688Z,64.55
2023-03-30T17:50:43.392Z,64.64
2023-03-30T17:53:14.652Z,64.48
2023-03-30T17:55:41.276Z,64.61
2023-03-30T17:58:29.249Z,62.78
2023-03-30T18:00:55.918Z,64.68
2023-03-30T18:03:23.222Z,64.91
2023-03-30T18:05:50.508Z,64.93
2023-03-30T18:08:21.222Z,64.83
2023-03-30T18:10:49.749Z,64.63
2023-03-30T18:13:16.374Z,65.07
2023-03-30T18:15:43.922Z,65.16
2023-03-30T18:18:11.797Z,65.27
2023-03-30T18:20:41.162Z,65.20
2023-03-30T18:23:08.078Z,65.67
2023-03-30T18:25:34.580Z,65.60
2023-03-30T18:28:01.604Z,65.54
2023-03-30T18:30:37.415Z,65.23
2023-03-30T18:33:04.779Z,65.68
2023-03-30T18:35:32.828Z,65.79
2023-03-30T18:37:59.254Z,65.93
2023-03-30T18:40:35.077Z,64.70
2023-03-30T18:43:01.434Z,66.38
2023-03-30T18:46:00.809Z,66.28
2023-03-30T18:48:28.344Z,66.73
2023-03-30T18:50:55.535Z,66.73
2023-03-30T18:53:24.400Z,66.85
2023-03-30T18:55:53.317Z,66.97
2023-03-30T18:58:25.457Z,66.50
2023-03-30T19:00:53.178Z,67.06
2023-03-30T19:03:21.687Z,67.27
2023-03-30T19:05:49.615Z,67.39
2023-03-30T19:08:22.150Z,67.40
2023-03-30T19:10:50.874Z,67.67
2023-03-30T19:13:20.645Z,67.39
2023-03-30T19:15:48.650Z,67.76
2023-03-30T19:18:15.230Z,67.86
2023-03-30T19:20:42.433Z,67.97
2023-03-30T19:23:12.737Z,67.48
2023-03-30T19:25:40.292Z,68.25
2023-03-30T19:28:07.981Z,68.23
2023-03-30T19:30:38.330Z,68.28
2023-03-30T19:33:08.696Z,68.52
2023-03-30T19:35:35.690Z,68.69
2023-03-30T19:38:02.210Z,68.58
2023-03-30T19:40:28.672Z,68.88
2023-03-30T19:42:55.269Z,68.93
2023-03-30T19:45:23.484Z,68.85
2023-03-30T19:47:50.394Z,68.92
2023-03-30T19:50:18.851Z,68.97
2023-03-30T19:52:48.488Z,68.77
2023-03-30T19:55:15.390Z,69.08
2023-03-30T19:57:41.832Z,69.16
2023-03-30T20:00:12.693Z,68.88
2023-03-30T20:02:40.178Z,69.00
2023-03-30T20:05:09.882Z,68.90
2023-03-30T20:07:37.514Z,68.91
2023-03-30T20:10:05.101Z,68.97
2023-03-30T20:12:31.628Z,69.00
2023-03-30T20:14:58.863Z,69.30
2023-03-30T20:17:25.554Z,69.24
2023-03-30T20:19:54.495Z,69.31
2023-03-30T20:22:20.895Z,69.54
2023-03-30T20:24:47.792Z,69.33
2023-03-30T20:27:14.382Z,69.66
2023-03-30T20:29:40.745Z,69.61
2023-03-30T20:32:07.260Z,69.60
2023-03-30T20:34:33.712Z,69.44
2023-03-30T20:37:00.252Z,69.43
2023-03-30T20:39:27.071Z,69.53
2023-03-30T20:41:57.945Z,69.70
2023-03-30T20:44:31.677Z,69.88
2023-03-30T20:46:59.197Z,70.34
2023-03-30T20:49:26.441Z,70.20
2023-03-30T20:51:53.204Z,70.88
2023-03-30T20:54:20.731Z,71.05
2023-03-30T20:56:47.411Z,71.18
2023-03-30T20:59:13.808Z,71.56
2023-03-30T21:01:40.910Z,71.57
2023-03-30T21:04:08.062Z,71.79
2023-03-30T21:06:35.860Z,71.66
2023-03-30T21:09:05.721Z,71.68
2023-03-30T21:11:35.229Z,71.90
2023-03-30T21:14:02.116Z,72.13
2023-03-30T21:16:28.818Z,72.12
2023-03-30T21:18:55.340Z,71.96
2023-03-30T21:21:21.852Z,71.95
2023-03-30T21:23:48.696Z,72.14
2023-03-30T21:26:18.427Z,72.23
2023-03-30T21:28:45.408Z,72.30
2023-03-30T21:31:16.986Z,72.24
2023-03-30T21:50:43.236Z,72.58
2023-03-30T21:53:09.586Z,72.89
2023-03-30T21:55:36.065Z,72.74
2023-03-30T21:58:02.555Z,72.84
2023-03-30T22:00:28.938Z,72.90
2023-03-30T22:02:55.314Z,72.84
2023-03-30T22:05:21.688Z,72.89
2023-03-30T22:07:48.193Z,72.80
2023-03-30T22:10:14.535Z,72.66
2023-03-30T22:12:41.336Z,72.60
2023-03-30T22:15:08.321Z,72.57
2023-03-30T22:17:42.691Z,72.56
2023-03-30T22:20:12.295Z,72.58
2023-03-30T22:22:39.670Z,72.56
2023-03-30T22:25:06.472Z,72.46
2023-03-30T22:27:32.838Z,72.52
2023-03-30T22:29:59.389Z,72.56
2023-03-30T22:32:25.860Z,72.33
2023-03-30T22:34:52.319Z,72.31
2023-03-30T22:37:18.750Z,72.29
2023-03-30T22:39:45.363Z,72.29
2023-03-30T22:42:11.767Z,72.35
2023-03-30T22:44:38.176Z,72.43
2023-03-30T22:47:04.584Z,72.42
2023-03-30T22:49:30.994Z,72.50
2023-03-30T22:51:59.473Z,72.29
2023-03-30T22:54:25.954Z,72.14
2023-03-30T22:56:52.413Z,72.30
2023-03-30T22:59:18.980Z,71.97
2023-03-30T23:01:45.679Z,71.61
2023-03-30T23:04:12.119Z,71.61
2023-03-30T23:06:39.000Z,71.33
2023-03-30T23:09:06.594Z,71.58
2023-03-30T23:11:33.277Z,71.35
2023-03-30T23:14:06.084Z,71.59
2023-03-30T23:19:01.266Z,71.86
2023-03-30T23:21:34.146Z,72.00
2023-03-30T23:24:03.127Z,71.97
2023-03-30T23:26:29.796Z,71.99
2023-03-30T23:28:56.559Z,72.01
2023-03-30T23:31:26.580Z,71.86
2023-03-30T23:33:54.802Z,71.70
2023-03-30T23:36:23.720Z,71.66
2023-03-30T23:38:57.200Z,71.36
2023-03-30T23:41:24.571Z,71.64
2023-03-30T23:43:51.441Z,71.70
2023-03-30T23:46:18.260Z,71.52
2023-03-30T23:48:44.682Z,71.65
2023-03-30T23:51:12.148Z,71.25
2023-03-30T23:53:41.594Z,71.27
2023-03-30T23:56:12.714Z,70.96
2023-03-30T23:58:40.647Z,71.30
